METAR Data
IDs: Format: Raw Decoded Include TAF

Data at: 0512 UTC 03 Jul 2022

KMKT 030456Z AUTO 12006KT 10SM FEW080 18/16 A3007 RMK AO2 SLP183 T01830161